createdAt,value
2018-10-17T00:00:22.368Z,86.67
2018-10-17T00:02:51.201Z,96.70
2018-10-17T00:05:20.057Z,78.40
2018-10-17T00:07:48.921Z,93.93
2018-10-17T00:10:18.107Z,65.17
2018-10-17T00:12:46.910Z,62.90
2018-10-17T00:15:15.805Z,80.37
2018-10-17T00:17:44.666Z,88.23
2018-10-17T00:20:13.503Z,68.93
2018-10-17T00:22:42.334Z,89.83
2018-10-17T00:25:11.336Z,65.03
2018-10-17T00:27:40.172Z,72.93
2018-10-17T00:30:11.074Z,69.27
2018-10-17T00:32:39.961Z,83.33
2018-10-17T00:35:09.793Z,70.53
2018-10-17T00:37:38.652Z,66.40
2018-10-17T00:40:07.750Z,61.20
2018-10-17T00:42:36.842Z,74.60
2018-10-17T00:45:06.626Z,74.33
2018-10-17T00:47:35.584Z,56.30
2018-10-17T00:50:04.501Z,66.23
2018-10-17T00:52:33.387Z,64.33
2018-10-17T00:55:02.401Z,61.87
2018-10-17T00:57:31.225Z,71.17
2018-10-17T01:00:00.113Z,55.13
2018-10-17T01:02:28.974Z,63.97
2018-10-17T01:04:57.834Z,70.73
2018-10-17T01:07:26.634Z,65.00
2018-10-17T01:09:55.594Z,55.70
2018-10-17T01:12:24.431Z,52.00
2018-10-17T01:14:54.493Z,59.50
2018-10-17T01:17:24.071Z,71.43
2018-10-17T01:19:53.066Z,87.33
2018-10-17T01:22:21.967Z,103.40
2018-10-17T01:24:50.794Z,95.03
2018-10-17T01:27:19.705Z,117.93
2018-10-17T01:29:50.847Z,125.40
2018-10-17T01:32:19.715Z,81.87
2018-10-17T01:34:48.583Z,105.60
2018-10-17T01:37:17.412Z,106.63
2018-10-17T01:39:46.363Z,87.53
2018-10-17T01:42:15.356Z,94.33
2018-10-17T01:44:45.174Z,71.37
2018-10-17T01:47:14.217Z,70.80
2018-10-17T01:49:43.183Z,67.33
2018-10-17T01:52:11.923Z,125.73
2018-10-17T01:54:40.777Z,83.47
2018-10-17T01:57:09.725Z,77.43
2018-10-17T01:59:38.568Z,83.67
2018-10-17T02:02:07.530Z,84.00
2018-10-17T02:04:36.334Z,91.27
2018-10-17T02:07:05.420Z,94.13
2018-10-17T02:09:34.324Z,87.17
2018-10-17T02:12:03.248Z,96.17
2018-10-17T02:14:32.060Z,91.53
2018-10-17T02:17:01.306Z,82.23
2018-10-17T02:19:30.153Z,92.57
2018-10-17T02:21:59.153Z,96.73
2018-10-17T02:24:27.962Z,96.33
2018-10-17T02:26:56.806Z,84.43
2018-10-17T02:29:25.640Z,92.33
2018-10-17T02:31:54.570Z,80.27
2018-10-17T02:34:23.407Z,98.57
2018-10-17T02:36:52.355Z,87.00
2018-10-17T02:39:21.376Z,96.47
2018-10-17T02:41:50.214Z,113.93
2018-10-17T02:44:19.083Z,100.20
2018-10-17T02:46:47.936Z,107.63
2018-10-17T02:49:16.831Z,123.00
2018-10-17T02:51:45.659Z,131.30
2018-10-17T02:54:14.526Z,122.03
2018-10-17T02:56:43.370Z,120.27
2018-10-17T02:59:12.299Z,106.93
2018-10-17T03:01:41.573Z,123.03
2018-10-17T03:04:10.413Z,147.77
2018-10-17T03:06:39.194Z,101.07
2018-10-17T03:09:09.111Z,111.97
2018-10-17T03:11:37.837Z,87.13
2018-10-17T03:14:06.683Z,101.17
2018-10-17T03:16:35.603Z,67.03
2018-10-17T03:19:04.506Z,110.30
2018-10-17T03:21:33.458Z,93.20
2018-10-17T03:24:02.309Z,102.57
2018-10-17T03:26:31.514Z,86.97
2018-10-17T03:29:00.374Z,74.57
2018-10-17T03:31:29.314Z,69.63
2018-10-17T03:33:58.135Z,83.57
2018-10-17T03:36:26.973Z,101.43
2018-10-17T03:38:55.943Z,109.23
2018-10-17T03:41:24.760Z,106.43
2018-10-17T03:43:53.607Z,91.47
2018-10-17T03:46:22.503Z,99.50
2018-10-17T03:48:52.291Z,108.07
2018-10-17T03:51:21.569Z,109.73
2018-10-17T03:53:50.576Z,84.73
2018-10-17T03:56:19.748Z,94.00
2018-10-17T03:58:48.854Z,104.57
2018-10-17T04:01:19.395Z,83.83
2018-10-17T04:03:48.997Z,92.50
2018-10-17T04:09:09.094Z,101.80
2018-10-17T04:11:37.875Z,101.83
2018-10-17T04:14:06.727Z,103.90
2018-10-17T04:16:35.612Z,82.63
2018-10-17T04:19:04.560Z,86.93
2018-10-17T04:21:33.463Z,99.23
2018-10-17T04:24:02.405Z,110.67
2018-10-17T04:26:31.300Z,96.47
2018-10-17T04:29:00.154Z,309.20
2018-10-17T04:31:29.001Z,103.97
2018-10-17T04:33:57.857Z,112.00
2018-10-17T04:36:26.759Z,93.70
2018-10-17T04:38:56.759Z,97.43
2018-10-17T04:41:25.622Z,94.57
2018-10-17T04:43:54.376Z,101.37
2018-10-17T04:46:23.265Z,103.97
2018-10-17T04:48:52.260Z,96.43
2018-10-17T04:51:21.066Z,101.23
2018-10-17T04:53:49.943Z,117.17
2018-10-17T04:56:18.763Z,113.73
2018-10-17T04:58:47.612Z,100.63
2018-10-17T05:01:16.504Z,98.87
2018-10-17T05:03:45.410Z,87.43
2018-10-17T05:06:14.332Z,93.10
2018-10-17T05:08:43.250Z,111.27
2018-10-17T05:11:12.165Z,119.40
2018-10-17T05:13:42.832Z,104.27
2018-10-17T05:16:11.664Z,125.80
2018-10-17T05:18:40.630Z,97.20
2018-10-17T05:21:09.441Z,114.73
2018-10-17T05:23:38.527Z,136.60
2018-10-17T05:26:07.398Z,120.33
2018-10-17T05:28:36.232Z,128.23
2018-10-17T05:31:05.296Z,136.57
2018-10-17T05:33:34.273Z,123.00
2018-10-17T05:36:03.191Z,134.70
2018-10-17T05:38:32.106Z,111.47
2018-10-17T05:41:01.054Z,129.23
2018-10-17T05:43:30.106Z,93.03
2018-10-17T05:45:59.080Z,80.00
2018-10-17T05:48:28.779Z,79.63
2018-10-17T05:50:57.623Z,76.00
2018-10-17T05:53:26.503Z,95.53
2018-10-17T05:55:55.347Z,81.40
2018-10-17T05:58:24.303Z,80.23
2018-10-17T06:00:53.203Z,82.30
2018-10-17T06:03:22.059Z,73.43
2018-10-17T06:05:51.070Z,77.57
2018-10-17T06:08:19.959Z,76.60
2018-10-17T06:10:48.771Z,88.13
2018-10-17T06:13:17.614Z,86.70
2018-10-17T06:15:46.414Z,77.07
2018-10-17T06:18:15.180Z,76.73
2018-10-17T06:20:44.142Z,82.00
2018-10-17T06:23:13.142Z,88.40
2018-10-17T06:28:47.090Z,87.13
2018-10-17T06:31:15.836Z,66.03
2018-10-17T06:33:44.337Z,80.07
2018-10-17T06:36:12.947Z,83.23
2018-10-17T06:38:41.500Z,58.57
2018-10-17T06:41:10.253Z,76.67
2018-10-17T06:43:38.821Z,63.77
2018-10-17T06:46:07.313Z,56.70
2018-10-17T06:48:38.391Z,56.40
2018-10-17T06:51:07.035Z,64.30
2018-10-17T06:53:35.572Z,55.23
2018-10-17T06:56:04.170Z,52.60
2018-10-17T06:58:32.786Z,53.43
2018-10-17T07:01:01.625Z,58.87
2018-10-17T07:03:31.049Z,58.53
2018-10-17T07:06:01.396Z,56.27
2018-10-17T07:08:31.754Z,53.10
2018-10-17T07:11:01.177Z,57.07
2018-10-17T07:13:31.459Z,53.27
2018-10-17T07:16:01.764Z,54.80
2018-10-17T07:18:31.406Z,59.60
2018-10-17T07:21:01.473Z,56.03
2018-10-17T07:23:30.964Z,44.43
2018-10-17T07:26:01.076Z,47.17
2018-10-17T07:28:30.895Z,49.87
2018-10-17T07:31:01.246Z,45.33
2018-10-17T07:33:30.812Z,47.87
2018-10-17T07:36:01.766Z,40.30
2018-10-17T07:38:32.486Z,46.30
2018-10-17T07:41:01.851Z,54.23
2018-10-17T07:43:34.280Z,40.60
2018-10-17T07:46:03.900Z,43.30
2018-10-17T07:48:33.428Z,41.90
2018-10-17T07:51:03.558Z,39.17
2018-10-17T07:53:32.477Z,46.03
2018-10-17T07:56:01.732Z,42.23
2018-10-17T07:58:30.784Z,37.53
2018-10-17T08:00:59.971Z,43.07
2018-10-17T08:03:31.098Z,45.33
2018-10-17T08:05:59.990Z,43.73
2018-10-17T08:08:29.611Z,44.37
2018-10-17T08:11:00.052Z,46.70
2018-10-17T08:13:29.590Z,45.37
2018-10-17T08:16:00.312Z,43.13
2018-10-17T08:18:31.639Z,49.13
2018-10-17T08:21:01.467Z,49.60
2018-10-17T08:23:30.883Z,42.93
2018-10-17T08:25:59.959Z,51.03
2018-10-17T08:28:29.465Z,46.23
2018-10-17T08:30:58.834Z,51.23
2018-10-17T08:33:30.287Z,42.70
2018-10-17T08:35:59.864Z,42.47
2018-10-17T08:38:29.231Z,43.10
2018-10-17T08:40:58.707Z,43.40
2018-10-17T08:43:28.011Z,44.03
2018-10-17T08:45:57.082Z,42.53
2018-10-17T08:48:27.753Z,47.70
2018-10-17T08:50:57.615Z,38.83
2018-10-17T08:53:27.758Z,42.20
2018-10-17T08:55:56.960Z,42.30
2018-10-17T08:58:25.802Z,41.60
2018-10-17T09:00:54.694Z,40.53
2018-10-17T09:03:24.700Z,37.73
2018-10-17T09:05:53.763Z,46.43
2018-10-17T09:08:24.806Z,41.70
2018-10-17T09:10:53.852Z,45.33
2018-10-17T09:13:24.809Z,47.70
2018-10-17T09:15:53.762Z,41.57
2018-10-17T09:18:22.652Z,43.30
2018-10-17T09:20:52.430Z,49.40
2018-10-17T09:23:21.644Z,48.80
2018-10-17T09:25:52.842Z,42.63
2018-10-17T09:28:21.709Z,43.27
2018-10-17T09:30:50.560Z,52.70
2018-10-17T09:33:19.418Z,48.87
2018-10-17T09:35:48.370Z,47.80
2018-10-17T09:38:17.415Z,49.53
2018-10-17T09:40:46.349Z,48.87
2018-10-17T09:43:15.558Z,50.47
2018-10-17T09:45:44.485Z,49.00
2018-10-17T09:48:13.477Z,46.63
2018-10-17T09:50:42.253Z,47.00
2018-10-17T09:53:12.293Z,55.97
2018-10-17T09:55:41.516Z,45.50
2018-10-17T09:58:10.317Z,44.63
2018-10-17T10:00:44.339Z,52.57
2018-10-17T10:03:13.174Z,49.23
2018-10-17T10:05:42.028Z,53.63
2018-10-17T10:08:10.858Z,45.87
2018-10-17T10:10:40.144Z,45.93
2018-10-17T10:13:09.082Z,49.83
2018-10-17T10:15:38.306Z,53.40
2018-10-17T10:18:07.250Z,49.97
2018-10-17T10:20:36.110Z,52.77
2018-10-17T10:23:05.116Z,47.93
2018-10-17T10:25:34.033Z,62.10
2018-10-17T10:28:03.652Z,43.13
2018-10-17T10:30:32.529Z,45.33
2018-10-17T10:33:02.327Z,50.43
2018-10-17T10:35:34.711Z,48.43
2018-10-17T10:38:03.686Z,46.93
2018-10-17T10:40:32.590Z,48.30
2018-10-17T10:43:01.856Z,51.77
2018-10-17T10:45:31.111Z,43.50
2018-10-17T10:48:00.130Z,47.87
2018-10-17T10:50:28.871Z,52.30
2018-10-17T10:52:57.779Z,43.07
2018-10-17T10:55:26.611Z,50.37
2018-10-17T10:57:55.901Z,46.33
2018-10-17T11:00:24.695Z,48.57
2018-10-17T11:02:53.574Z,50.67
2018-10-17T11:05:22.542Z,51.17
2018-10-17T11:07:51.332Z,46.80
2018-10-17T11:10:20.427Z,41.70
2018-10-17T11:12:49.327Z,50.07
2018-10-17T11:15:18.299Z,53.50
2018-10-17T11:17:47.578Z,43.70
2018-10-17T11:20:16.455Z,51.27
2018-10-17T11:22:45.277Z,43.83
2018-10-17T11:25:14.125Z,52.73
2018-10-17T11:27:42.911Z,45.27
2018-10-17T11:30:12.514Z,49.23
2018-10-17T11:32:41.636Z,46.93
2018-10-17T11:35:11.684Z,48.77
2018-10-17T11:37:40.415Z,42.87
2018-10-17T11:40:09.611Z,46.17
2018-10-17T11:42:38.354Z,48.40
2018-10-17T11:45:07.299Z,45.23
2018-10-17T11:47:36.851Z,45.67
2018-10-17T11:50:07.533Z,43.37
2018-10-17T11:52:36.440Z,54.53
2018-10-17T11:55:06.512Z,51.30
2018-10-17T11:57:35.389Z,52.50
2018-10-17T12:00:04.530Z,46.37
2018-10-17T12:02:33.477Z,45.97
2018-10-17T12:05:03.829Z,51.10
2018-10-17T12:07:32.589Z,49.33
2018-10-17T12:10:01.513Z,48.03
2018-10-17T12:12:30.278Z,52.47
2018-10-17T12:14:59.256Z,50.70
2018-10-17T12:17:28.223Z,43.43
2018-10-17T12:19:58.223Z,44.77
2018-10-17T12:22:27.076Z,46.60
2018-10-17T12:24:56.012Z,50.10
2018-10-17T12:27:24.930Z,45.77
2018-10-17T12:29:54.185Z,47.20
2018-10-17T12:32:23.133Z,39.43
2018-10-17T12:34:52.101Z,46.07
2018-10-17T12:37:20.978Z,43.27
2018-10-17T12:39:49.869Z,47.53
2018-10-17T12:42:18.763Z,40.83
2018-10-17T12:44:49.571Z,43.97
2018-10-17T12:47:18.465Z,45.03
2018-10-17T12:49:47.322Z,40.53
2018-10-17T12:52:16.370Z,44.23
2018-10-17T12:54:45.170Z,38.17
2018-10-17T12:57:15.415Z,40.70
2018-10-17T12:59:49.802Z,47.27
2018-10-17T13:02:18.667Z,40.87
2018-10-17T13:04:47.894Z,42.37
2018-10-17T13:07:16.904Z,39.20
2018-10-17T13:09:45.704Z,35.53
2018-10-17T13:12:14.535Z,35.40
2018-10-17T13:14:43.576Z,34.47
2018-10-17T13:17:12.492Z,37.37
2018-10-17T13:19:41.390Z,35.30
2018-10-17T13:22:11.432Z,35.10
2018-10-17T13:24:40.677Z,38.00
2018-10-17T13:27:09.523Z,44.17
2018-10-17T13:29:38.386Z,43.37
2018-10-17T13:32:07.222Z,38.73
2018-10-17T13:34:36.122Z,43.47
2018-10-17T13:37:05.316Z,37.03
2018-10-17T13:39:34.135Z,41.00
2018-10-17T13:42:03.012Z,39.17
2018-10-17T13:44:31.767Z,40.07
2018-10-17T13:47:01.021Z,36.10
2018-10-17T13:49:29.845Z,38.03
2018-10-17T13:51:58.810Z,34.33
2018-10-17T13:54:27.602Z,35.07
2018-10-17T13:56:56.465Z,34.20
2018-10-17T13:59:25.451Z,39.70
2018-10-17T14:01:54.271Z,35.30
2018-10-17T14:04:23.104Z,37.90
2018-10-17T14:09:43.032Z,33.10
2018-10-17T14:12:11.950Z,32.77
2018-10-17T14:14:41.262Z,36.63
2018-10-17T14:17:10.155Z,40.03
2018-10-17T14:19:39.112Z,39.27
2018-10-17T14:22:08.940Z,38.30
2018-10-17T14:24:37.803Z,34.83
2018-10-17T14:27:07.392Z,41.67
2018-10-17T14:29:36.464Z,34.33
2018-10-17T14:32:06.431Z,34.77
2018-10-17T14:34:35.520Z,33.23
2018-10-17T14:37:04.430Z,37.60
2018-10-17T14:39:33.337Z,37.77
2018-10-17T14:42:02.240Z,37.57
2018-10-17T14:44:31.365Z,34.53
2018-10-17T14:47:00.241Z,33.63
2018-10-17T14:49:29.560Z,39.50
2018-10-17T14:51:58.339Z,36.10
2018-10-17T14:54:27.218Z,37.20
2018-10-17T14:56:56.040Z,42.23
2018-10-17T14:59:24.937Z,42.07
2018-10-17T15:01:54.237Z,45.33
2018-10-17T15:04:23.148Z,37.13
2018-10-17T15:06:52.016Z,39.03
2018-10-17T15:09:20.912Z,36.60
2018-10-17T15:11:50.079Z,36.13
2018-10-17T15:14:18.744Z,30.70
2018-10-17T15:16:48.386Z,30.63
2018-10-17T15:19:17.240Z,26.33
2018-10-17T15:21:46.168Z,26.00
2018-10-17T15:24:15.161Z,28.10
2018-10-17T15:26:44.226Z,26.40
2018-10-17T15:29:13.028Z,35.13
2018-10-17T15:31:41.893Z,24.03
2018-10-17T15:34:10.827Z,37.17
2018-10-17T15:36:39.647Z,24.70
2018-10-17T15:39:10.128Z,29.00
2018-10-17T15:41:39.100Z,32.93
2018-10-17T15:44:08.463Z,25.80
2018-10-17T15:46:37.560Z,25.93
2018-10-17T15:49:07.107Z,28.30
2018-10-17T15:51:35.997Z,23.13
2018-10-17T15:54:05.449Z,25.53
2018-10-17T15:56:34.254Z,24.87
2018-10-17T15:59:03.080Z,28.40
2018-10-17T16:01:31.935Z,34.73
2018-10-17T16:04:00.881Z,23.80
2018-10-17T16:06:30.171Z,27.30
2018-10-17T16:08:58.984Z,24.57
2018-10-17T16:11:28.234Z,24.07
2018-10-17T16:13:57.562Z,27.63
2018-10-17T16:16:26.681Z,33.63
2018-10-17T16:18:56.416Z,33.53
2018-10-17T16:21:25.769Z,29.60
2018-10-17T16:23:55.768Z,27.77
2018-10-17T16:26:25.052Z,24.80
2018-10-17T16:29:01.629Z,33.67
2018-10-17T16:31:37.825Z,26.60
2018-10-17T16:34:09.087Z,26.07
2018-10-17T16:36:37.816Z,29.93
2018-10-17T16:39:09.693Z,28.17
2018-10-17T16:41:39.308Z,33.67
2018-10-17T16:44:08.768Z,36.40
2018-10-17T16:46:38.324Z,37.60
2018-10-17T16:49:08.102Z,35.37
2018-10-17T16:51:37.190Z,30.13
2018-10-17T16:54:06.271Z,34.27
2018-10-17T16:56:35.190Z,35.33
2018-10-17T16:59:04.710Z,44.10
2018-10-17T17:01:33.559Z,31.23
2018-10-17T17:04:03.600Z,37.07
2018-10-17T17:06:32.723Z,34.67
2018-10-17T17:09:02.593Z,57.33
2018-10-17T17:11:33.979Z,35.27
2018-10-17T17:14:02.923Z,34.23
2018-10-17T17:16:31.932Z,38.10
2018-10-17T17:19:02.857Z,47.53
2018-10-17T17:21:31.851Z,39.27
2018-10-17T17:24:00.682Z,38.60
2018-10-17T17:26:29.579Z,38.00
2018-10-17T17:28:58.443Z,57.23
2018-10-17T17:31:27.700Z,44.73
2018-10-17T17:33:56.555Z,41.20
2018-10-17T17:36:25.540Z,58.03
2018-10-17T17:38:54.366Z,51.07
2018-10-17T17:41:24.061Z,51.83
2018-10-17T17:43:52.959Z,48.63
2018-10-17T17:46:24.037Z,61.37
2018-10-17T17:48:52.943Z,51.83
2018-10-17T17:51:22.119Z,37.20
2018-10-17T17:53:51.020Z,50.10
2018-10-17T17:56:19.886Z,73.50
2018-10-17T17:58:48.908Z,57.50
2018-10-17T18:01:18.645Z,53.50
2018-10-17T18:03:47.952Z,52.80
2018-10-17T18:06:16.840Z,49.43
2018-10-17T18:08:45.777Z,50.10
2018-10-17T18:11:23.152Z,70.80
2018-10-17T18:13:53.144Z,60.53
2018-10-17T18:16:22.041Z,54.23
2018-10-17T18:18:50.873Z,51.10
2018-10-17T18:21:19.697Z,52.10
2018-10-17T18:23:48.523Z,58.20
2018-10-17T18:26:17.364Z,47.70
2018-10-17T18:28:46.577Z,55.93
2018-10-17T18:31:15.368Z,56.70
2018-10-17T18:33:44.318Z,53.53
2018-10-17T18:36:23.839Z,47.47
2018-10-17T18:38:52.916Z,47.93
2018-10-17T18:41:21.832Z,57.70
2018-10-17T18:43:51.152Z,50.27
2018-10-17T18:46:22.579Z,60.33
2018-10-17T18:48:52.238Z,70.63
2018-10-17T18:51:21.134Z,60.97
2018-10-17T18:53:50.016Z,54.07
2018-10-17T18:56:19.016Z,47.40
2018-10-17T18:58:47.869Z,63.70
2018-10-17T19:01:17.304Z,65.10
2018-10-17T19:03:46.484Z,67.23
2018-10-17T19:06:15.623Z,61.57
2018-10-17T19:08:44.971Z,57.70
2018-10-17T19:11:16.298Z,62.00
2018-10-17T19:13:47.456Z,58.27
2018-10-17T19:16:16.435Z,74.07
2018-10-17T19:18:46.315Z,55.90
2018-10-17T19:21:15.970Z,54.97
2018-10-17T19:23:44.902Z,74.63
2018-10-17T19:26:14.311Z,75.23
2018-10-17T19:28:43.613Z,69.53
2018-10-17T19:31:12.884Z,73.73
2018-10-17T19:33:42.201Z,72.77
2018-10-17T19:36:11.130Z,60.07
2018-10-17T19:38:39.930Z,62.87
2018-10-17T19:41:09.074Z,86.37
2018-10-17T19:43:38.095Z,110.63
2018-10-17T19:46:07.943Z,164.17
2018-10-17T19:48:39.834Z,148.67
2018-10-17T19:51:08.777Z,112.53
2018-10-17T19:53:38.232Z,122.80
2018-10-17T19:56:07.134Z,106.93
2018-10-17T19:58:39.171Z,91.23
2018-10-17T20:01:08.122Z,76.60
2018-10-17T20:03:36.973Z,81.77
2018-10-17T20:06:06.193Z,80.80
2018-10-17T20:08:36.534Z,88.87
2018-10-17T20:11:05.605Z,75.77
2018-10-17T20:13:34.644Z,82.40
2018-10-17T20:16:03.565Z,79.20
2018-10-17T20:18:32.378Z,67.27
2018-10-17T20:21:01.703Z,74.83
2018-10-17T20:23:30.516Z,57.17
2018-10-17T20:25:59.737Z,75.97
2018-10-17T20:28:28.697Z,77.87
2018-10-17T20:31:38.553Z,70.97
2018-10-17T20:34:08.107Z,80.57
2018-10-17T20:36:36.947Z,61.50
2018-10-17T20:39:09.719Z,69.50
2018-10-17T20:41:38.878Z,81.27
2018-10-17T20:44:07.770Z,62.80
2018-10-17T20:46:37.419Z,82.77
2018-10-17T20:49:06.863Z,68.93
2018-10-17T20:51:35.819Z,75.63
2018-10-17T20:54:04.718Z,74.13
2018-10-17T20:56:34.036Z,85.83
2018-10-17T20:59:02.887Z,79.87
2018-10-17T21:01:32.047Z,77.07
2018-10-17T21:04:00.844Z,81.47
2018-10-17T21:06:29.790Z,74.73
2018-10-17T21:08:58.580Z,79.20
2018-10-17T21:11:27.541Z,94.67
2018-10-17T21:13:56.365Z,86.87
2018-10-17T21:16:26.440Z,113.20
2018-10-17T21:18:55.533Z,110.03
2018-10-17T21:21:24.596Z,89.40
2018-10-17T21:23:53.396Z,87.67
2018-10-17T21:26:23.479Z,124.17
2018-10-17T21:28:55.025Z,144.93
2018-10-17T21:31:28.012Z,201.20
2018-10-17T21:33:58.746Z,106.60
2018-10-17T21:36:27.787Z,122.80
2018-10-17T21:38:57.447Z,161.00
2018-10-17T21:41:26.268Z,154.97
2018-10-17T21:43:55.290Z,100.43
2018-10-17T21:46:25.681Z,157.20
2018-10-17T21:48:55.771Z,132.50
2018-10-17T21:51:24.685Z,121.40
2018-10-17T21:53:54.913Z,148.93
2018-10-17T21:56:23.740Z,140.13
2018-10-17T21:58:53.594Z,135.27
2018-10-17T22:01:22.527Z,169.07
2018-10-17T22:03:51.355Z,161.47
2018-10-17T22:06:20.195Z,214.17
2018-10-17T22:08:49.123Z,316.90
2018-10-17T22:11:18.003Z,286.93
2018-10-17T22:13:46.904Z,257.73
2018-10-17T22:16:15.978Z,260.37
2018-10-17T22:18:46.350Z,154.30
2018-10-17T22:21:15.219Z,155.03
2018-10-17T22:23:44.232Z,135.27
2018-10-17T22:26:13.226Z,173.30
2018-10-17T22:28:42.506Z,149.13
2018-10-17T22:31:11.274Z,170.20
2018-10-17T22:33:40.141Z,155.63
2018-10-17T22:36:09.445Z,191.13
2018-10-17T22:38:38.421Z,163.27
2018-10-17T22:41:07.754Z,165.23
2018-10-17T22:43:37.097Z,144.67
2018-10-17T22:46:06.251Z,156.67
2018-10-17T22:48:35.115Z,141.93
2018-10-17T22:51:03.963Z,178.87
2018-10-17T22:53:32.803Z,137.67
2018-10-17T22:56:01.663Z,166.33
2018-10-17T22:58:30.551Z,218.77
2018-10-17T23:00:59.418Z,149.47
2018-10-17T23:03:29.008Z,175.30
2018-10-17T23:05:57.837Z,172.47
2018-10-17T23:08:27.022Z,150.87
2018-10-17T23:10:55.951Z,148.80
2018-10-17T23:13:24.799Z,223.43
2018-10-17T23:15:53.752Z,626.77
2018-10-17T23:18:22.617Z,902.37
2018-10-17T23:20:51.471Z,723.17
2018-10-17T23:23:20.368Z,174.87
2018-10-17T23:25:49.121Z,696.57
2018-10-17T23:28:18.052Z,192.30
2018-10-17T23:30:46.902Z,199.70
2018-10-17T23:33:15.681Z,204.70
2018-10-17T23:35:44.538Z,260.97
2018-10-17T23:38:13.482Z,784.87
2018-10-17T23:40:42.335Z,1999.90
2018-10-17T23:43:11.458Z,952.07
2018-10-17T23:45:40.505Z,1146.97
2018-10-17T23:48:10.267Z,1999.90
2018-10-17T23:50:39.730Z,745.33
2018-10-17T23:53:10.177Z,1999.90
2018-10-17T23:55:39.050Z,1999.90
2018-10-17T23:58:07.962Z,1411.77
